sensor_id;sensor_type;location;lat;lon;timestamp;P1;durP1;ratioP1;P2;durP2;ratioP2
58978;SDS011;44763;50.464;30.612;2022-09-27T00:00:03;6.08;;;5.58;;
58978;SDS011;44763;50.464;30.612;2022-09-27T00:02:33;7.53;;;6.53;;
58978;SDS011;44763;50.464;30.612;2022-09-27T00:04:59;7.92;;;7.22;;
58978;SDS011;44763;50.464;30.612;2022-09-27T00:07:25;6.85;;;6.25;;
58978;SDS011;44763;50.464;30.612;2022-09-27T00:09:51;8.15;;;6.30;;
58978;SDS011;44763;50.464;30.612;2022-09-27T00:12:17;7.85;;;6.47;;
58978;SDS011;44763;50.464;30.612;2022-09-27T00:14:45;7.45;;;6.83;;
58978;SDS011;44763;50.464;30.612;2022-09-27T00:17:11;6.67;;;6.17;;
58978;SDS011;44763;50.464;30.612;2022-09-27T00:22:44;9.08;;;7.35;;
58978;SDS011;44763;50.464;30.612;2022-09-27T00:25:10;8.90;;;7.50;;
58978;SDS011;44763;50.464;30.612;2022-09-27T00:27:37;8.00;;;6.58;;
58978;SDS011;44763;50.464;30.612;2022-09-27T00:30:04;7.12;;;6.50;;
58978;SDS011;44763;50.464;30.612;2022-09-27T00:32:31;7.45;;;6.78;;
58978;SDS011;44763;50.464;30.612;2022-09-27T00:34:57;8.35;;;6.80;;
58978;SDS011;44763;50.464;30.612;2022-09-27T00:39:50;7.35;;;6.75;;
58978;SDS011;44763;50.464;30.612;2022-09-27T00:42:16;7.95;;;7.22;;
58978;SDS011;44763;50.464;30.612;2022-09-27T00:44:51;8.60;;;7.80;;
58978;SDS011;44763;50.464;30.612;2022-09-27T00:47:28;7.40;;;6.65;;
58978;SDS011;44763;50.464;30.612;2022-09-27T00:50:09;7.97;;;7.37;;
58978;SDS011;44763;50.464;30.612;2022-09-27T00:55:47;9.08;;;8.18;;
58978;SDS011;44763;50.464;30.612;2022-09-27T00:58:20;8.70;;;8.00;;
58978;SDS011;44763;50.464;30.612;2022-09-27T01:00:56;9.58;;;8.75;;
58978;SDS011;44763;50.464;30.612;2022-09-27T01:03:45;9.43;;;8.60;;
58978;SDS011;44763;50.464;30.612;2022-09-27T01:06:09;9.35;;;8.38;;
58978;SDS011;44763;50.464;30.612;2022-09-27T01:08:37;8.98;;;8.08;;
58978;SDS011;44763;50.464;30.612;2022-09-27T01:11:09;11.95;;;7.85;;
58978;SDS011;44763;50.464;30.612;2022-09-27T01:13:42;7.85;;;7.12;;
58978;SDS011;44763;50.464;30.612;2022-09-27T01:16:47;8.05;;;7.42;;
58978;SDS011;44763;50.464;30.612;2022-09-27T01:48:21;11.20;;;9.98;;
58978;SDS011;44763;50.464;30.612;2022-09-27T01:50:52;11.38;;;10.28;;
58978;SDS011;44763;50.464;30.612;2022-09-27T01:53:34;10.23;;;9.33;;
58978;SDS011;44763;50.464;30.612;2022-09-27T01:56:14;9.88;;;8.83;;
58978;SDS011;44763;50.464;30.612;2022-09-27T01:59:01;9.58;;;8.78;;
58978;SDS011;44763;50.464;30.612;2022-09-27T02:01:38;11.10;;;10.10;;
58978;SDS011;44763;50.464;30.612;2022-09-27T02:04:09;11.10;;;10.05;;
58978;SDS011;44763;50.464;30.612;2022-09-27T02:06:39;10.75;;;9.75;;
58978;SDS011;44763;50.464;30.612;2022-09-27T02:09:13;11.28;;;10.18;;
58978;SDS011;44763;50.464;30.612;2022-09-27T02:11:54;12.45;;;11.08;;
58978;SDS011;44763;50.464;30.612;2022-09-27T02:14:26;11.55;;;10.38;;
58978;SDS011;44763;50.464;30.612;2022-09-27T02:20:15;12.43;;;11.22;;
58978;SDS011;44763;50.464;30.612;2022-09-27T02:28:55;11.90;;;10.67;;
58978;SDS011;44763;50.464;30.612;2022-09-27T02:31:19;14.17;;;12.67;;
58978;SDS011;44763;50.464;30.612;2022-09-27T02:33:51;14.15;;;12.28;;
58978;SDS011;44763;50.464;30.612;2022-09-27T02:36:30;13.60;;;11.95;;
58978;SDS011;44763;50.464;30.612;2022-09-27T02:38:58;15.83;;;12.55;;
58978;SDS011;44763;50.464;30.612;2022-09-27T02:41:26;13.40;;;12.10;;
58978;SDS011;44763;50.464;30.612;2022-09-27T02:43:53;14.30;;;10.95;;
58978;SDS011;44763;50.464;30.612;2022-09-27T02:49:46;12.60;;;11.28;;
58978;SDS011;44763;50.464;30.612;2022-09-27T02:58:30;18.60;;;12.33;;
58978;SDS011;44763;50.464;30.612;2022-09-27T03:04:29;13.98;;;11.95;;
58978;SDS011;44763;50.464;30.612;2022-09-27T03:06:59;13.35;;;12.15;;
58978;SDS011;44763;50.464;30.612;2022-09-27T03:09:27;12.65;;;11.43;;
58978;SDS011;44763;50.464;30.612;2022-09-27T03:11:58;12.65;;;11.55;;
58978;SDS011;44763;50.464;30.612;2022-09-27T03:14:24;15.38;;;12.10;;
58978;SDS011;44763;50.464;30.612;2022-09-27T03:17:05;12.90;;;11.53;;
58978;SDS011;44763;50.464;30.612;2022-09-27T03:19:44;12.88;;;11.68;;
58978;SDS011;44763;50.464;30.612;2022-09-27T03:22:29;14.85;;;13.25;;
58978;SDS011;44763;50.464;30.612;2022-09-27T03:27:23;17.02;;;14.07;;
58978;SDS011;44763;50.464;30.612;2022-09-27T03:29:49;15.08;;;12.25;;
58978;SDS011;44763;50.464;30.612;2022-09-27T03:32:15;14.15;;;12.80;;
58978;SDS011;44763;50.464;30.612;2022-09-27T03:34:47;13.75;;;12.45;;
58978;SDS011;44763;50.464;30.612;2022-09-27T03:37:13;13.75;;;12.55;;
58978;SDS011;44763;50.464;30.612;2022-09-27T03:39:39;13.80;;;12.50;;
58978;SDS011;44763;50.464;30.612;2022-09-27T03:42:05;13.72;;;12.53;;
58978;SDS011;44763;50.464;30.612;2022-09-27T03:44:32;14.55;;;13.08;;
58978;SDS011;44763;50.464;30.612;2022-09-27T03:46:58;14.60;;;12.25;;
58978;SDS011;44763;50.464;30.612;2022-09-27T03:49:24;15.23;;;13.72;;
58978;SDS011;44763;50.464;30.612;2022-09-27T03:51:52;15.35;;;12.28;;
58978;SDS011;44763;50.464;30.612;2022-09-27T03:54:18;13.45;;;12.23;;
58978;SDS011;44763;50.464;30.612;2022-09-27T03:56:44;13.85;;;12.55;;
58978;SDS011;44763;50.464;30.612;2022-09-27T03:59:10;14.65;;;13.38;;
58978;SDS011;44763;50.464;30.612;2022-09-27T04:01:38;14.80;;;13.30;;
58978;SDS011;44763;50.464;30.612;2022-09-27T04:04:06;15.30;;;13.80;;
58978;SDS011;44763;50.464;30.612;2022-09-27T04:06:32;13.18;;;11.97;;
58978;SDS011;44763;50.464;30.612;2022-09-27T04:08:59;15.48;;;12.90;;
58978;SDS011;44763;50.464;30.612;2022-09-27T04:11:28;13.98;;;12.58;;
58978;SDS011;44763;50.464;30.612;2022-09-27T04:13:54;15.03;;;13.55;;
58978;SDS011;44763;50.464;30.612;2022-09-27T04:16:22;15.35;;;13.75;;
58978;SDS011;44763;50.464;30.612;2022-09-27T04:18:51;15.53;;;13.93;;
58978;SDS011;44763;50.464;30.612;2022-09-27T04:21:25;14.70;;;13.30;;
58978;SDS011;44763;50.464;30.612;2022-09-27T04:23:51;14.33;;;12.88;;
58978;SDS011;44763;50.464;30.612;2022-09-27T04:26:18;15.30;;;13.70;;
58978;SDS011;44763;50.464;30.612;2022-09-27T04:28:53;16.65;;;13.53;;
58978;SDS011;44763;50.464;30.612;2022-09-27T04:31:19;17.50;;;14.80;;
58978;SDS011;44763;50.464;30.612;2022-09-27T04:33:47;16.12;;;14.63;;
58978;SDS011;44763;50.464;30.612;2022-09-27T04:36:24;16.40;;;14.80;;
58978;SDS011;44763;50.464;30.612;2022-09-27T04:39:00;16.57;;;13.70;;
58978;SDS011;44763;50.464;30.612;2022-09-27T04:41:29;15.53;;;13.85;;
58978;SDS011;44763;50.464;30.612;2022-09-27T04:43:56;16.30;;;14.73;;
58978;SDS011;44763;50.464;30.612;2022-09-27T04:46:26;17.10;;;13.85;;
58978;SDS011;44763;50.464;30.612;2022-09-27T04:48:55;20.43;;;15.55;;
58978;SDS011;44763;50.464;30.612;2022-09-27T04:51:23;18.52;;;16.17;;
58978;SDS011;44763;50.464;30.612;2022-09-27T04:53:50;16.55;;;14.47;;
58978;SDS011;44763;50.464;30.612;2022-09-27T04:56:17;19.92;;;16.15;;
58978;SDS011;44763;50.464;30.612;2022-09-27T04:58:43;16.30;;;14.70;;
58978;SDS011;44763;50.464;30.612;2022-09-27T05:01:11;21.00;;;15.40;;
58978;SDS011;44763;50.464;30.612;2022-09-27T05:03:41;19.00;;;15.15;;
58978;SDS011;44763;50.464;30.612;2022-09-27T05:06:11;18.52;;;16.65;;
58978;SDS011;44763;50.464;30.612;2022-09-27T05:08:39;17.75;;;15.20;;
58978;SDS011;44763;50.464;30.612;2022-09-27T05:11:15;17.95;;;16.15;;
58978;SDS011;44763;50.464;30.612;2022-09-27T05:13:43;20.00;;;15.78;;
58978;SDS011;44763;50.464;30.612;2022-09-27T05:16:09;21.12;;;15.48;;
58978;SDS011;44763;50.464;30.612;2022-09-27T05:18:38;19.15;;;16.00;;
58978;SDS011;44763;50.464;30.612;2022-09-27T05:21:18;22.50;;;16.60;;
58978;SDS011;44763;50.464;30.612;2022-09-27T05:23:45;19.85;;;14.55;;
58978;SDS011;44763;50.464;30.612;2022-09-27T05:26:12;16.37;;;14.78;;
58978;SDS011;44763;50.464;30.612;2022-09-27T05:28:38;18.57;;;16.15;;
58978;SDS011;44763;50.464;30.612;2022-09-27T05:31:06;19.17;;;16.32;;
58978;SDS011;44763;50.464;30.612;2022-09-27T05:33:32;20.70;;;15.50;;
58978;SDS011;44763;50.464;30.612;2022-09-27T05:36:07;18.50;;;15.45;;
58978;SDS011;44763;50.464;30.612;2022-09-27T05:38:34;15.68;;;14.03;;
58978;SDS011;44763;50.464;30.612;2022-09-27T05:41:03;17.35;;;15.50;;
58978;SDS011;44763;50.464;30.612;2022-09-27T05:43:33;20.60;;;16.05;;
58978;SDS011;44763;50.464;30.612;2022-09-27T05:46:00;29.35;;;24.63;;
58978;SDS011;44763;50.464;30.612;2022-09-27T05:48:27;16.70;;;15.18;;
58978;SDS011;44763;50.464;30.612;2022-09-27T05:50:56;18.57;;;16.07;;
58978;SDS011;44763;50.464;30.612;2022-09-27T05:53:22;17.95;;;16.00;;
58978;SDS011;44763;50.464;30.612;2022-09-27T05:55:48;17.07;;;15.50;;
58978;SDS011;44763;50.464;30.612;2022-09-27T05:58:16;15.95;;;14.43;;
58978;SDS011;44763;50.464;30.612;2022-09-27T06:00:47;16.40;;;14.80;;
58978;SDS011;44763;50.464;30.612;2022-09-27T06:03:16;17.12;;;15.53;;
58978;SDS011;44763;50.464;30.612;2022-09-27T06:05:54;15.45;;;14.03;;
58978;SDS011;44763;50.464;30.612;2022-09-27T06:08:34;16.48;;;14.85;;
58978;SDS011;44763;50.464;30.612;2022-09-27T06:11:05;15.05;;;13.70;;
58978;SDS011;44763;50.464;30.612;2022-09-27T06:13:35;16.73;;;15.03;;
58978;SDS011;44763;50.464;30.612;2022-09-27T06:18:28;17.60;;;15.83;;
58978;SDS011;44763;50.464;30.612;2022-09-27T06:20:54;16.75;;;15.20;;
58978;SDS011;44763;50.464;30.612;2022-09-27T06:23:27;17.17;;;15.08;;
58978;SDS011;44763;50.464;30.612;2022-09-27T06:25:55;16.67;;;15.00;;
58978;SDS011;44763;50.464;30.612;2022-09-27T06:28:41;17.77;;;15.55;;
58978;SDS011;44763;50.464;30.612;2022-09-27T06:31:07;17.10;;;15.32;;
58978;SDS011;44763;50.464;30.612;2022-09-27T06:33:40;21.65;;;15.50;;
58978;SDS011;44763;50.464;30.612;2022-09-27T06:36:06;17.10;;;14.65;;
58978;SDS011;44763;50.464;30.612;2022-09-27T06:38:35;16.02;;;14.33;;
58978;SDS011;44763;50.464;30.612;2022-09-27T06:41:03;15.45;;;13.95;;
58978;SDS011;44763;50.464;30.612;2022-09-27T06:43:40;21.23;;;15.60;;
58978;SDS011;44763;50.464;30.612;2022-09-27T06:46:14;18.55;;;16.75;;
58978;SDS011;44763;50.464;30.612;2022-09-27T06:48:52;18.55;;;15.90;;
58978;SDS011;44763;50.464;30.612;2022-09-27T06:51:19;20.35;;;15.80;;
58978;SDS011;44763;50.464;30.612;2022-09-27T06:53:45;21.85;;;16.73;;
58978;SDS011;44763;50.464;30.612;2022-09-27T06:56:11;20.35;;;16.20;;
58978;SDS011;44763;50.464;30.612;2022-09-27T06:58:48;23.25;;;18.05;;
58978;SDS011;44763;50.464;30.612;2022-09-27T07:01:44;30.95;;;19.75;;
58978;SDS011;44763;50.464;30.612;2022-09-27T07:04:21;31.42;;;20.57;;
58978;SDS011;44763;50.464;30.612;2022-09-27T07:06:55;34.35;;;21.15;;
58978;SDS011;44763;50.464;30.612;2022-09-27T07:09:24;36.53;;;21.05;;
58978;SDS011;44763;50.464;30.612;2022-09-27T07:11:51;30.35;;;20.43;;
58978;SDS011;44763;50.464;30.612;2022-09-27T07:14:20;37.98;;;19.20;;
58978;SDS011;44763;50.464;30.612;2022-09-27T07:16:48;36.40;;;19.95;;
58978;SDS011;44763;50.464;30.612;2022-09-27T07:19:16;31.55;;;20.45;;
58978;SDS011;44763;50.464;30.612;2022-09-27T07:21:43;37.23;;;21.93;;
58978;SDS011;44763;50.464;30.612;2022-09-27T07:24:10;38.48;;;23.57;;
58978;SDS011;44763;50.464;30.612;2022-09-27T07:26:37;34.40;;;22.37;;
58978;SDS011;44763;50.464;30.612;2022-09-27T07:29:05;34.73;;;22.15;;
58978;SDS011;44763;50.464;30.612;2022-09-27T07:31:32;40.00;;;22.90;;
58978;SDS011;44763;50.464;30.612;2022-09-27T07:33:58;35.95;;;24.20;;
58978;SDS011;44763;50.464;30.612;2022-09-27T07:36:24;42.53;;;24.37;;
58978;SDS011;44763;50.464;30.612;2022-09-27T07:38:51;36.48;;;24.23;;
58978;SDS011;44763;50.464;30.612;2022-09-27T07:41:19;38.23;;;24.35;;
58978;SDS011;44763;50.464;30.612;2022-09-27T07:46:12;41.30;;;23.98;;
58978;SDS011;44763;50.464;30.612;2022-09-27T07:48:46;41.42;;;23.67;;
58978;SDS011;44763;50.464;30.612;2022-09-27T07:51:19;42.08;;;25.10;;
58978;SDS011;44763;50.464;30.612;2022-09-27T07:53:47;38.70;;;24.27;;
58978;SDS011;44763;50.464;30.612;2022-09-27T07:56:32;42.90;;;25.75;;
58978;SDS011;44763;50.464;30.612;2022-09-27T07:58:59;42.40;;;25.27;;
58978;SDS011;44763;50.464;30.612;2022-09-27T08:01:25;41.20;;;25.02;;
58978;SDS011;44763;50.464;30.612;2022-09-27T08:03:52;36.58;;;24.70;;
58978;SDS011;44763;50.464;30.612;2022-09-27T08:06:19;38.28;;;24.75;;
58978;SDS011;44763;50.464;30.612;2022-09-27T08:08:47;37.60;;;23.87;;
58978;SDS011;44763;50.464;30.612;2022-09-27T08:11:16;40.83;;;25.10;;
58978;SDS011;44763;50.464;30.612;2022-09-27T08:13:45;46.45;;;25.17;;
58978;SDS011;44763;50.464;30.612;2022-09-27T08:16:12;38.42;;;24.15;;
58978;SDS011;44763;50.464;30.612;2022-09-27T08:18:43;39.98;;;24.85;;
58978;SDS011;44763;50.464;30.612;2022-09-27T08:21:12;38.65;;;24.98;;
58978;SDS011;44763;50.464;30.612;2022-09-27T08:23:44;35.48;;;24.85;;
58978;SDS011;44763;50.464;30.612;2022-09-27T08:26:12;37.88;;;25.30;;
58978;SDS011;44763;50.464;30.612;2022-09-27T08:28:43;38.33;;;24.87;;
58978;SDS011;44763;50.464;30.612;2022-09-27T08:31:17;37.03;;;25.32;;
58978;SDS011;44763;50.464;30.612;2022-09-27T08:33:47;32.05;;;23.50;;
58978;SDS011;44763;50.464;30.612;2022-09-27T08:36:16;32.75;;;23.00;;
58978;SDS011;44763;50.464;30.612;2022-09-27T08:38:42;41.00;;;25.48;;
58978;SDS011;44763;50.464;30.612;2022-09-27T08:41:15;43.28;;;26.40;;
58978;SDS011;44763;50.464;30.612;2022-09-27T08:52:26;40.23;;;29.20;;
58978;SDS011;44763;50.464;30.612;2022-09-27T08:54:57;36.00;;;26.95;;
58978;SDS011;44763;50.464;30.612;2022-09-27T08:57:28;38.28;;;26.52;;
58978;SDS011;44763;50.464;30.612;2022-09-27T09:00:06;34.88;;;24.20;;
58978;SDS011;44763;50.464;30.612;2022-09-27T09:02:33;34.58;;;25.80;;
58978;SDS011;44763;50.464;30.612;2022-09-27T09:05:02;33.25;;;25.57;;
58978;SDS011;44763;50.464;30.612;2022-09-27T09:16:57;35.25;;;25.57;;
58978;SDS011;44763;50.464;30.612;2022-09-27T09:25:55;33.42;;;24.47;;
58978;SDS011;44763;50.464;30.612;2022-09-27T09:31:41;53.60;;;35.00;;
58978;SDS011;44763;50.464;30.612;2022-09-27T09:34:31;49.38;;;35.68;;
58978;SDS011;44763;50.464;30.612;2022-09-27T09:39:42;64.75;;;38.50;;
58978;SDS011;44763;50.464;30.612;2022-09-27T09:42:18;57.25;;;37.58;;
58978;SDS011;44763;50.464;30.612;2022-09-27T09:44:55;55.17;;;36.20;;
58978;SDS011;44763;50.464;30.612;2022-09-27T09:50:23;53.05;;;33.80;;
58978;SDS011;44763;50.464;30.612;2022-09-27T09:53:00;45.20;;;32.98;;
58978;SDS011;44763;50.464;30.612;2022-09-27T09:55:32;49.85;;;32.60;;
58978;SDS011;44763;50.464;30.612;2022-09-27T10:00:33;50.15;;;33.45;;
58978;SDS011;44763;50.464;30.612;2022-09-27T10:05:30;46.55;;;28.57;;
58978;SDS011;44763;50.464;30.612;2022-09-27T10:07:59;39.13;;;28.15;;
58978;SDS011;44763;50.464;30.612;2022-09-27T10:10:29;40.38;;;29.60;;
58978;SDS011;44763;50.464;30.612;2022-09-27T10:13:09;43.08;;;29.42;;
58978;SDS011;44763;50.464;30.612;2022-09-27T10:15:39;51.77;;;33.73;;
58978;SDS011;44763;50.464;30.612;2022-09-27T10:18:08;38.95;;;28.95;;
58978;SDS011;44763;50.464;30.612;2022-09-27T10:20:47;47.53;;;32.53;;
58978;SDS011;44763;50.464;30.612;2022-09-27T10:23:20;57.62;;;33.23;;
58978;SDS011;44763;50.464;30.612;2022-09-27T10:26:09;51.92;;;34.70;;
58978;SDS011;44763;50.464;30.612;2022-09-27T10:28:39;52.38;;;34.55;;
58978;SDS011;44763;50.464;30.612;2022-09-27T10:31:11;46.83;;;33.08;;
58978;SDS011;44763;50.464;30.612;2022-09-27T10:33:53;48.38;;;33.90;;
58978;SDS011;44763;50.464;30.612;2022-09-27T10:36:25;48.83;;;33.02;;
58978;SDS011;44763;50.464;30.612;2022-09-27T10:38:55;47.43;;;30.32;;
58978;SDS011;44763;50.464;30.612;2022-09-27T10:44:18;50.65;;;34.15;;
58978;SDS011;44763;50.464;30.612;2022-09-27T10:46:47;45.50;;;31.00;;
58978;SDS011;44763;50.464;30.612;2022-09-27T10:49:40;50.10;;;33.55;;
58978;SDS011;44763;50.464;30.612;2022-09-27T10:52:16;51.25;;;33.75;;
58978;SDS011;44763;50.464;30.612;2022-09-27T10:54:59;48.25;;;34.18;;
58978;SDS011;44763;50.464;30.612;2022-09-27T10:57:47;55.40;;;35.88;;
58978;SDS011;44763;50.464;30.612;2022-09-27T11:00:21;49.05;;;35.00;;
58978;SDS011;44763;50.464;30.612;2022-09-27T11:03:11;49.38;;;34.43;;
58978;SDS011;44763;50.464;30.612;2022-09-27T11:05:41;49.60;;;34.23;;
58978;SDS011;44763;50.464;30.612;2022-09-27T11:10:59;53.20;;;34.73;;
58978;SDS011;44763;50.464;30.612;2022-09-27T11:13:31;54.77;;;35.60;;
58978;SDS011;44763;50.464;30.612;2022-09-27T11:18:59;53.80;;;35.92;;
58978;SDS011;44763;50.464;30.612;2022-09-27T11:27:45;56.70;;;35.45;;
58978;SDS011;44763;50.464;30.612;2022-09-27T11:30:27;51.02;;;35.88;;
58978;SDS011;44763;50.464;30.612;2022-09-27T11:36:21;56.15;;;34.48;;
58978;SDS011;44763;50.464;30.612;2022-09-27T11:39:18;52.55;;;35.28;;
58978;SDS011;44763;50.464;30.612;2022-09-27T11:47:50;51.00;;;35.85;;
58978;SDS011;44763;50.464;30.612;2022-09-27T11:53:16;51.98;;;35.20;;
58978;SDS011;44763;50.464;30.612;2022-09-27T11:56:03;53.68;;;33.23;;
58978;SDS011;44763;50.464;30.612;2022-09-27T12:09:49;51.75;;;33.35;;
58978;SDS011;44763;50.464;30.612;2022-09-27T12:12:21;45.83;;;32.28;;
58978;SDS011;44763;50.464;30.612;2022-09-27T12:14:58;46.20;;;31.07;;
58978;SDS011;44763;50.464;30.612;2022-09-27T12:17:33;46.00;;;33.42;;
58978;SDS011;44763;50.464;30.612;2022-09-27T12:20:17;50.08;;;34.20;;
58978;SDS011;44763;50.464;30.612;2022-09-27T12:25:24;46.48;;;32.38;;
58978;SDS011;44763;50.464;30.612;2022-09-27T12:28:00;50.92;;;32.65;;
58978;SDS011;44763;50.464;30.612;2022-09-27T12:30:39;51.25;;;32.23;;
58978;SDS011;44763;50.464;30.612;2022-09-27T12:33:21;45.03;;;31.82;;
58978;SDS011;44763;50.464;30.612;2022-09-27T12:39:08;48.10;;;33.30;;
58978;SDS011;44763;50.464;30.612;2022-09-27T12:41:38;46.00;;;28.87;;
58978;SDS011;44763;50.464;30.612;2022-09-27T12:44:13;43.42;;;29.52;;
58978;SDS011;44763;50.464;30.612;2022-09-27T12:49:44;39.20;;;28.67;;
58978;SDS011;44763;50.464;30.612;2022-09-27T12:52:14;38.73;;;27.82;;
58978;SDS011;44763;50.464;30.612;2022-09-27T12:57:50;39.83;;;27.07;;
58978;SDS011;44763;50.464;30.612;2022-09-27T13:00:43;35.25;;;26.95;;
58978;SDS011;44763;50.464;30.612;2022-09-27T13:12:20;34.15;;;23.60;;
58978;SDS011;44763;50.464;30.612;2022-09-27T13:14:57;32.98;;;25.17;;
58978;SDS011;44763;50.464;30.612;2022-09-27T13:34:55;33.00;;;22.77;;
58978;SDS011;44763;50.464;30.612;2022-09-27T13:40:34;32.83;;;23.18;;
58978;SDS011;44763;50.464;30.612;2022-09-27T13:46:01;31.68;;;22.85;;
58978;SDS011;44763;50.464;30.612;2022-09-27T13:48:55;34.65;;;24.32;;
58978;SDS011;44763;50.464;30.612;2022-09-27T13:57:06;28.85;;;22.52;;
58978;SDS011;44763;50.464;30.612;2022-09-27T13:59:52;33.35;;;22.67;;
58978;SDS011;44763;50.464;30.612;2022-09-27T14:02:30;31.15;;;22.50;;
58978;SDS011;44763;50.464;30.612;2022-09-27T14:05:08;31.68;;;23.07;;
58978;SDS011;44763;50.464;30.612;2022-09-27T14:07:41;33.28;;;24.50;;
58978;SDS011;44763;50.464;30.612;2022-09-27T14:10:13;35.75;;;25.10;;
58978;SDS011;44763;50.464;30.612;2022-09-27T14:12:45;34.95;;;24.87;;
58978;SDS011;44763;50.464;30.612;2022-09-27T14:15:22;32.33;;;24.60;;
58978;SDS011;44763;50.464;30.612;2022-09-27T14:17:56;37.23;;;27.58;;
58978;SDS011;44763;50.464;30.612;2022-09-27T14:23:19;36.38;;;25.32;;
58978;SDS011;44763;50.464;30.612;2022-09-27T14:25:48;33.48;;;24.87;;
58978;SDS011;44763;50.464;30.612;2022-09-27T14:28:27;39.05;;;27.80;;
58978;SDS011;44763;50.464;30.612;2022-09-27T14:31:05;39.70;;;26.37;;
58978;SDS011;44763;50.464;30.612;2022-09-27T14:33:45;42.13;;;27.62;;
58978;SDS011;44763;50.464;30.612;2022-09-27T14:39:24;38.08;;;27.65;;
58978;SDS011;44763;50.464;30.612;2022-09-27T14:41:51;40.78;;;26.68;;
58978;SDS011;44763;50.464;30.612;2022-09-27T14:46:44;29.40;;;25.02;;
58978;SDS011;44763;50.464;30.612;2022-09-27T14:49:20;35.65;;;25.10;;
58978;SDS011;44763;50.464;30.612;2022-09-27T14:51:52;33.78;;;26.10;;
58978;SDS011;44763;50.464;30.612;2022-09-27T14:54:26;38.33;;;25.15;;
58978;SDS011;44763;50.464;30.612;2022-09-27T14:56:52;34.43;;;26.12;;
58978;SDS011;44763;50.464;30.612;2022-09-27T14:59:24;34.67;;;25.85;;
58978;SDS011;44763;50.464;30.612;2022-09-27T15:01:59;33.75;;;25.97;;
58978;SDS011;44763;50.464;30.612;2022-09-27T15:04:31;37.48;;;25.92;;
58978;SDS011;44763;50.464;30.612;2022-09-27T15:09:25;34.50;;;25.45;;
58978;SDS011;44763;50.464;30.612;2022-09-27T15:11:53;37.35;;;26.70;;
58978;SDS011;44763;50.464;30.612;2022-09-27T15:14:24;37.98;;;28.07;;
58978;SDS011;44763;50.464;30.612;2022-09-27T15:16:54;33.38;;;27.32;;
58978;SDS011;44763;50.464;30.612;2022-09-27T15:19:24;37.05;;;26.65;;
58978;SDS011;44763;50.464;30.612;2022-09-27T15:21:53;34.15;;;26.90;;
58978;SDS011;44763;50.464;30.612;2022-09-27T15:24:37;33.15;;;25.85;;
58978;SDS011;44763;50.464;30.612;2022-09-27T15:27:20;34.55;;;25.97;;
58978;SDS011;44763;50.464;30.612;2022-09-27T15:29:50;34.73;;;27.17;;
58978;SDS011;44763;50.464;30.612;2022-09-27T15:32:20;38.00;;;27.95;;
58978;SDS011;44763;50.464;30.612;2022-09-27T15:34:49;34.00;;;27.25;;
58978;SDS011;44763;50.464;30.612;2022-09-27T15:37:35;41.85;;;28.17;;
58978;SDS011;44763;50.464;30.612;2022-09-27T15:42:58;36.73;;;25.97;;
58978;SDS011;44763;50.464;30.612;2022-09-27T15:45:32;37.70;;;27.42;;
58978;SDS011;44763;50.464;30.612;2022-09-27T15:48:10;41.95;;;28.38;;
58978;SDS011;44763;50.464;30.612;2022-09-27T15:50:43;37.53;;;28.77;;
58978;SDS011;44763;50.464;30.612;2022-09-27T15:53:09;40.70;;;30.00;;
58978;SDS011;44763;50.464;30.612;2022-09-27T15:55:43;39.67;;;28.87;;
58978;SDS011;44763;50.464;30.612;2022-09-27T15:58:12;46.40;;;31.27;;
58978;SDS011;44763;50.464;30.612;2022-09-27T16:00:50;53.50;;;30.95;;
58978;SDS011;44763;50.464;30.612;2022-09-27T16:03:22;46.92;;;30.45;;
58978;SDS011;44763;50.464;30.612;2022-09-27T16:05:50;43.60;;;30.30;;
58978;SDS011;44763;50.464;30.612;2022-09-27T16:08:20;41.65;;;28.90;;
58978;SDS011;44763;50.464;30.612;2022-09-27T16:10:52;50.92;;;31.50;;
58978;SDS011;44763;50.464;30.612;2022-09-27T16:13:21;45.33;;;31.10;;
58978;SDS011;44763;50.464;30.612;2022-09-27T16:15:48;54.18;;;32.85;;
58978;SDS011;44763;50.464;30.612;2022-09-27T16:18:15;46.90;;;31.42;;
58978;SDS011;44763;50.464;30.612;2022-09-27T16:23:07;46.60;;;29.48;;
58978;SDS011;44763;50.464;30.612;2022-09-27T16:25:35;47.95;;;31.93;;
58978;SDS011;44763;50.464;30.612;2022-09-27T16:28:02;44.33;;;33.13;;
58978;SDS011;44763;50.464;30.612;2022-09-27T16:30:30;44.00;;;29.98;;
58978;SDS011;44763;50.464;30.612;2022-09-27T16:32:57;43.60;;;29.52;;
58978;SDS011;44763;50.464;30.612;2022-09-27T16:35:24;39.10;;;27.80;;
58978;SDS011;44763;50.464;30.612;2022-09-27T16:37:52;33.88;;;26.42;;
58978;SDS011;44763;50.464;30.612;2022-09-27T16:40:20;34.92;;;25.68;;
58978;SDS011;44763;50.464;30.612;2022-09-27T16:42:48;32.67;;;23.95;;
58978;SDS011;44763;50.464;30.612;2022-09-27T16:45:14;32.45;;;25.17;;
58978;SDS011;44763;50.464;30.612;2022-09-27T16:47:41;31.55;;;23.80;;
58978;SDS011;44763;50.464;30.612;2022-09-27T16:50:09;35.33;;;24.02;;
58978;SDS011;44763;50.464;30.612;2022-09-27T16:52:56;32.50;;;23.60;;
58978;SDS011;44763;50.464;30.612;2022-09-27T16:55:24;33.33;;;23.47;;
58978;SDS011;44763;50.464;30.612;2022-09-27T16:57:53;36.83;;;24.67;;
58978;SDS011;44763;50.464;30.612;2022-09-27T17:00:24;32.38;;;23.32;;
58978;SDS011;44763;50.464;30.612;2022-09-27T17:02:51;36.03;;;25.08;;
58978;SDS011;44763;50.464;30.612;2022-09-27T17:05:19;34.58;;;24.82;;
58978;SDS011;44763;50.464;30.612;2022-09-27T17:07:52;37.55;;;24.47;;
58978;SDS011;44763;50.464;30.612;2022-09-27T17:10:20;38.38;;;24.67;;
58978;SDS011;44763;50.464;30.612;2022-09-27T17:12:48;35.90;;;24.87;;
58978;SDS011;44763;50.464;30.612;2022-09-27T17:15:15;39.05;;;24.82;;
58978;SDS011;44763;50.464;30.612;2022-09-27T17:17:42;35.73;;;26.00;;
58978;SDS011;44763;50.464;30.612;2022-09-27T17:20:11;39.03;;;25.37;;
58978;SDS011;44763;50.464;30.612;2022-09-27T17:22:37;33.15;;;24.47;;
58978;SDS011;44763;50.464;30.612;2022-09-27T17:25:06;34.15;;;23.95;;
58978;SDS011;44763;50.464;30.612;2022-09-27T17:27:34;31.90;;;24.37;;
58978;SDS011;44763;50.464;30.612;2022-09-27T17:30:00;32.28;;;23.52;;
58978;SDS011;44763;50.464;30.612;2022-09-27T17:32:26;29.90;;;23.40;;
58978;SDS011;44763;50.464;30.612;2022-09-27T17:34:52;33.45;;;23.05;;
58978;SDS011;44763;50.464;30.612;2022-09-27T17:37:19;33.88;;;23.10;;
58978;SDS011;44763;50.464;30.612;2022-09-27T17:39:48;27.55;;;21.37;;
58978;SDS011;44763;50.464;30.612;2022-09-27T17:42:13;28.05;;;21.97;;
58978;SDS011;44763;50.464;30.612;2022-09-27T17:44:39;32.33;;;23.27;;
58978;SDS011;44763;50.464;30.612;2022-09-27T17:47:05;31.25;;;23.05;;
58978;SDS011;44763;50.464;30.612;2022-09-27T17:49:50;28.65;;;22.15;;
58978;SDS011;44763;50.464;30.612;2022-09-27T17:52:34;25.60;;;20.60;;
58978;SDS011;44763;50.464;30.612;2022-09-27T17:55:02;30.72;;;22.58;;
58978;SDS011;44763;50.464;30.612;2022-09-27T17:57:29;26.75;;;21.90;;
58978;SDS011;44763;50.464;30.612;2022-09-27T17:59:57;30.57;;;22.13;;
58978;SDS011;44763;50.464;30.612;2022-09-27T18:04:50;31.23;;;22.57;;
58978;SDS011;44763;50.464;30.612;2022-09-27T18:07:18;27.87;;;21.20;;